sensor_id;sensor_type;location;lat;lon;timestamp;pressure;altitude;pressure_sealevel;temperature;humidity
23473;BME280;11909;52.516;13.564;2022-10-26T00:00:29;101163.63;;;8.72;100.00
23473;BME280;11909;52.516;13.564;2022-10-26T00:02:56;101172.50;;;8.80;100.00
23473;BME280;11909;52.516;13.564;2022-10-26T00:05:23;101175.16;;;8.74;100.00
23473;BME280;11909;52.516;13.564;2022-10-26T00:07:50;101173.25;;;8.75;100.00
23473;BME280;11909;52.516;13.564;2022-10-26T00:10:16;101174.91;;;8.76;100.00
23473;BME280;11909;52.516;13.564;2022-10-26T00:12:47;101172.94;;;8.71;100.00
23473;BME280;11909;52.516;13.564;2022-10-26T00:15:14;101169.94;;;8.73;100.00
23473;BME280;11909;52.516;13.564;2022-10-26T00:17:40;101168.34;;;8.77;100.00
23473;BME280;11909;52.516;13.564;2022-10-26T00:20:07;101169.94;;;8.73;100.00
23473;BME280;11909;52.516;13.564;2022-10-26T00:22:35;101171.03;;;8.72;100.00
23473;BME280;11909;52.516;13.564;2022-10-26T00:25:02;101169.44;;;8.76;100.00
23473;BME280;11909;52.516;13.564;2022-10-26T00:27:28;101171.59;;;8.74;100.00
23473;BME280;11909;52.516;13.564;2022-10-26T00:29:55;101175.09;;;8.69;100.00
23473;BME280;11909;52.516;13.564;2022-10-26T00:32:21;101178.88;;;8.63;100.00
23473;BME280;11909;52.516;13.564;2022-10-26T00:34:48;101181.34;;;8.65;100.00
23473;BME280;11909;52.516;13.564;2022-10-26T00:37:14;101183.22;;;8.59;100.00
23473;BME280;11909;52.516;13.564;2022-10-26T00:39:42;101185.63;;;8.55;100.00
23473;BME280;11909;52.516;13.564;2022-10-26T00:42:11;101188.22;;;8.45;100.00
23473;BME280;11909;52.516;13.564;2022-10-26T00:44:46;101197.19;;;8.40;100.00
23473;BME280;11909;52.516;13.564;2022-10-26T00:47:23;101196.91;;;8.42;100.00
23473;BME280;11909;52.516;13.564;2022-10-26T00:49:52;101195.56;;;8.44;100.00
23473;BME280;11909;52.516;13.564;2022-10-26T00:52:20;101206.59;;;8.50;100.00
23473;BME280;11909;52.516;13.564;2022-10-26T00:54:48;101199.72;;;8.47;100.00
23473;BME280;11909;52.516;13.564;2022-10-26T00:57:16;101194.78;;;8.44;100.00
23473;BME280;11909;52.516;13.564;2022-10-26T00:59:44;101197.19;;;8.40;100.00
23473;BME280;11909;52.516;13.564;2022-10-26T01:02:11;101197.13;;;8.35;100.00
23473;BME280;11909;52.516;13.564;2022-10-26T01:04:38;101189.16;;;8.33;100.00
23473;BME280;11909;52.516;13.564;2022-10-26T01:07:06;101186.69;;;8.32;100.00
23473;BME280;11909;52.516;13.564;2022-10-26T01:09:34;101184.53;;;8.34;100.00
23473;BME280;11909;52.516;13.564;2022-10-26T01:12:03;101184.53;;;8.34;100.00
23473;BME280;11909;52.516;13.564;2022-10-26T01:14:30;101189.09;;;8.28;100.00
23473;BME280;11909;52.516;13.564;2022-10-26T01:17:02;101183.34;;;8.30;100.00
23473;BME280;11909;52.516;13.564;2022-10-26T01:20:07;101185.53;;;8.28;100.00
23473;BME280;11909;52.516;13.564;2022-10-26T01:22:42;101178.41;;;8.27;100.00
23473;BME280;11909;52.516;13.564;2022-10-26T01:25:16;101178.91;;;8.24;100.00
23473;BME280;11909;52.516;13.564;2022-10-26T01:27:53;101180.50;;;8.20;100.00
23473;BME280;11909;52.516;13.564;2022-10-26T01:30:26;101177.94;;;8.13;100.00
23473;BME280;11909;52.516;13.564;2022-10-26T01:33:13;101176.56;;;8.10;100.00
23473;BME280;11909;52.516;13.564;2022-10-26T01:35:52;101177.94;;;8.13;100.00
23473;BME280;11909;52.516;13.564;2022-10-26T01:38:24;101171.41;;;8.14;100.00
23473;BME280;11909;52.516;13.564;2022-10-26T01:40:59;101166.50;;;8.16;100.00
23473;BME280;11909;52.516;13.564;2022-10-26T01:43:31;101177.06;;;8.07;100.00
23473;BME280;11909;52.516;13.564;2022-10-26T01:46:02;101172.03;;;7.99;100.00
23473;BME280;11909;52.516;13.564;2022-10-26T01:48:30;101162.34;;;7.91;100.00
23473;BME280;11909;52.516;13.564;2022-10-26T01:50:58;101154.44;;;7.89;100.00
23473;BME280;11909;52.516;13.564;2022-10-26T01:53:26;101153.59;;;7.89;100.00
23473;BME280;11909;52.516;13.564;2022-10-26T01:55:54;101156.25;;;7.84;100.00
23473;BME280;11909;52.516;13.564;2022-10-26T01:58:39;101161.78;;;7.89;100.00
23473;BME280;11909;52.516;13.564;2022-10-26T02:01:19;101162.44;;;7.96;100.00
23473;BME280;11909;52.516;13.564;2022-10-26T02:03:50;101165.75;;;7.98;100.00
23473;BME280;11909;52.516;13.564;2022-10-26T02:06:28;101158.63;;;7.97;100.00
23473;BME280;11909;52.516;13.564;2022-10-26T02:09:02;101156.25;;;7.84;100.00
23473;BME280;11909;52.516;13.564;2022-10-26T02:11:37;101149.66;;;7.80;100.00
23473;BME280;11909;52.516;13.564;2022-10-26T02:14:11;101147.16;;;7.78;100.00
23473;BME280;11909;52.516;13.564;2022-10-26T02:16:44;101147.41;;;7.77;100.00
23473;BME280;11909;52.516;13.564;2022-10-26T02:19:24;101154.19;;;7.74;100.00
23473;BME280;11909;52.516;13.564;2022-10-26T02:21:56;101152.03;;;7.76;100.00
23473;BME280;11909;52.516;13.564;2022-10-26T02:24:26;101145.50;;;7.77;100.00
23473;BME280;11909;52.516;13.564;2022-10-26T02:26:55;101155.28;;;7.73;100.00
23473;BME280;11909;52.516;13.564;2022-10-26T02:29:22;101150.66;;;7.73;100.00
23473;BME280;11909;52.516;13.564;2022-10-26T02:31:51;101157.50;;;7.76;100.00
23473;BME280;11909;52.516;13.564;2022-10-26T02:34:22;101148.34;;;7.65;100.00
23473;BME280;11909;52.516;13.564;2022-10-26T02:36:53;101143.31;;;7.57;100.00
23473;BME280;11909;52.516;13.564;2022-10-26T02:39:21;101138.75;;;7.63;100.00
23473;BME280;11909;52.516;13.564;2022-10-26T02:41:49;101145.59;;;7.65;100.00
23473;BME280;11909;52.516;13.564;2022-10-26T02:44:20;101144.13;;;7.57;100.00
23473;BME280;11909;52.516;13.564;2022-10-26T02:46:50;101148.44;;;7.53;100.00
23473;BME280;11909;52.516;13.564;2022-10-26T02:49:18;101144.88;;;7.53;100.00
23473;BME280;11909;52.516;13.564;2022-10-26T02:51:48;101153.59;;;7.50;100.00
23473;BME280;11909;52.516;13.564;2022-10-26T02:54:20;101156.56;;;7.48;100.00
23473;BME280;11909;52.516;13.564;2022-10-26T02:56:51;101159.06;;;7.50;100.00
23473;BME280;11909;52.516;13.564;2022-10-26T02:59:21;101160.19;;;7.54;100.00
23473;BME280;11909;52.516;13.564;2022-10-26T03:01:52;101165.16;;;7.57;100.00
23473;BME280;11909;52.516;13.564;2022-10-26T03:04:19;101160.50;;;7.57;100.00
23473;BME280;11909;52.516;13.564;2022-10-26T03:06:51;101165.66;;;7.54;100.00
23473;BME280;11909;52.516;13.564;2022-10-26T03:09:17;101168.91;;;7.51;100.00
23473;BME280;11909;52.516;13.564;2022-10-26T03:11:44;101164.97;;;7.46;100.00
23473;BME280;11909;52.516;13.564;2022-10-26T03:14:10;101173.44;;;7.45;100.00
23473;BME280;11909;52.516;13.564;2022-10-26T03:16:37;101170.94;;;7.43;100.00
23473;BME280;11909;52.516;13.564;2022-10-26T03:19:04;101174.53;;;7.44;100.00
23473;BME280;11909;52.516;13.564;2022-10-26T03:21:31;101161.94;;;7.43;100.00
23473;BME280;11909;52.516;13.564;2022-10-26T03:23:57;101163.03;;;7.42;100.00
23473;BME280;11909;52.516;13.564;2022-10-26T03:26:24;101169.88;;;7.44;100.00
23473;BME280;11909;52.516;13.564;2022-10-26T03:28:50;101171.59;;;7.34;100.00
23473;BME280;11909;52.516;13.564;2022-10-26T03:31:17;101169.56;;;7.41;100.00
23473;BME280;11909;52.516;13.564;2022-10-26T03:33:43;101168.66;;;7.35;100.00
23473;BME280;11909;52.516;13.564;2022-10-26T03:36:11;101166.41;;;7.32;100.00
23473;BME280;11909;52.516;13.564;2022-10-26T03:38:37;101166.06;;;7.28;100.00
23473;BME280;11909;52.516;13.564;2022-10-26T03:41:04;101164.75;;;7.31;100.00
23473;BME280;11909;52.516;13.564;2022-10-26T03:43:30;101166.50;;;7.37;100.00
23473;BME280;11909;52.516;13.564;2022-10-26T03:45:57;101170.03;;;7.38;100.00
23473;BME280;11909;52.516;13.564;2022-10-26T03:48:23;101173.59;;;7.38;100.00
23473;BME280;11909;52.516;13.564;2022-10-26T03:50:50;101174.69;;;7.37;100.00
23473;BME280;11909;52.516;13.564;2022-10-26T03:53:17;101177.66;;;7.36;100.00
23473;BME280;11909;52.516;13.564;2022-10-26T03:55:44;101180.22;;;7.25;100.00
23473;BME280;11909;52.516;13.564;2022-10-26T03:58:10;101169.44;;;7.18;100.00
23473;BME280;11909;52.516;13.564;2022-10-26T04:00:37;101165.66;;;7.20;100.00
23473;BME280;11909;52.516;13.564;2022-10-26T04:03:03;101165.91;;;7.18;100.00
23473;BME280;11909;52.516;13.564;2022-10-26T04:05:30;101165.34;;;7.16;100.00
23473;BME280;11909;52.516;13.564;2022-10-26T04:07:57;101163.41;;;7.16;100.00
23473;BME280;11909;52.516;13.564;2022-10-26T04:10:26;101172.44;;;7.17;100.00
23473;BME280;11909;52.516;13.564;2022-10-26T04:12:53;101162.69;;;7.21;100.00
23473;BME280;11909;52.516;13.564;2022-10-26T04:15:20;101175.25;;;7.22;100.00
23473;BME280;11909;52.516;13.564;2022-10-26T04:17:47;101171.38;;;7.18;100.00
23473;BME280;11909;52.516;13.564;2022-10-26T04:20:14;101176.16;;;7.11;100.00
23473;BME280;11909;52.516;13.564;2022-10-26T04:22:40;101176.63;;;7.08;100.00
23473;BME280;11909;52.516;13.564;2022-10-26T04:25:07;101169.78;;;7.05;100.00
23473;BME280;11909;52.516;13.564;2022-10-26T04:27:35;101168.38;;;7.02;100.00
23473;BME280;11909;52.516;13.564;2022-10-26T04:30:02;101174.63;;;7.03;100.00
23473;BME280;11909;52.516;13.564;2022-10-26T04:32:29;101177.63;;;7.01;100.00
23473;BME280;11909;52.516;13.564;2022-10-26T04:34:56;101175.81;;;7.07;100.00
23473;BME280;11909;52.516;13.564;2022-10-26T04:37:22;101181.88;;;7.09;100.00
23473;BME280;11909;52.516;13.564;2022-10-26T04:39:49;101175.81;;;7.07;100.00
23473;BME280;11909;52.516;13.564;2022-10-26T04:42:15;101181.59;;;7.11;100.00
23473;BME280;11909;52.516;13.564;2022-10-26T04:44:43;101183.84;;;7.14;100.00
23473;BME280;11909;52.516;13.564;2022-10-26T04:47:09;101182.59;;;7.22;100.00
23473;BME280;11909;52.516;13.564;2022-10-26T04:49:35;101186.69;;;7.19;100.00
23473;BME280;11909;52.516;13.564;2022-10-26T04:52:04;101178.81;;;7.23;100.00
23473;BME280;11909;52.516;13.564;2022-10-26T04:54:30;101183.09;;;7.18;100.00
23473;BME280;11909;52.516;13.564;2022-10-26T04:56:56;101183.38;;;7.17;100.00
23473;BME280;11909;52.516;13.564;2022-10-26T04:59:23;101185.59;;;7.20;100.00
23473;BME280;11909;52.516;13.564;2022-10-26T05:01:51;101176.66;;;7.25;100.00
23473;BME280;11909;52.516;13.564;2022-10-26T05:04:17;101181.22;;;7.19;100.00
23473;BME280;11909;52.516;13.564;2022-10-26T05:06:43;101172.69;;;7.15;100.00
23473;BME280;11909;52.516;13.564;2022-10-26T05:09:10;101167.00;;;7.17;100.00
23473;BME280;11909;52.516;13.564;2022-10-26T05:11:36;101170.44;;;7.12;100.00
23473;BME280;11909;52.516;13.564;2022-10-26T05:14:03;101171.19;;;7.08;100.00
23473;BME280;11909;52.516;13.564;2022-10-26T05:16:29;101173.00;;;7.02;100.00
23473;BME280;11909;52.516;13.564;2022-10-26T05:18:57;101174.31;;;6.99;100.00
23473;BME280;11909;52.516;13.564;2022-10-26T05:21:23;101175.97;;;7.00;100.00
23473;BME280;11909;52.516;13.564;2022-10-26T05:23:50;101169.59;;;6.95;100.00
23473;BME280;11909;52.516;13.564;2022-10-26T05:26:19;101174.03;;;6.84;100.00
23473;BME280;11909;52.516;13.564;2022-10-26T05:28:46;101182.13;;;6.79;100.00
23473;BME280;11909;52.516;13.564;2022-10-26T05:31:12;101189.16;;;6.74;100.00
23473;BME280;11909;52.516;13.564;2022-10-26T05:33:39;101181.47;;;6.71;100.00
23473;BME280;11909;52.516;13.564;2022-10-26T05:36:07;101183.84;;;6.68;100.00
23473;BME280;11909;52.516;13.564;2022-10-26T05:38:34;101189.69;;;6.59;100.00
23473;BME280;11909;52.516;13.564;2022-10-26T05:41:00;101186.13;;;6.59;100.00
23473;BME280;11909;52.516;13.564;2022-10-26T05:43:26;101185.31;;;6.58;100.00
23473;BME280;11909;52.516;13.564;2022-10-26T05:45:53;101189.44;;;6.61;100.00
23473;BME280;11909;52.516;13.564;2022-10-26T05:48:20;101185.97;;;6.66;100.00
23473;BME280;11909;52.516;13.564;2022-10-26T05:50:47;101187.28;;;6.63;100.00
23473;BME280;11909;52.516;13.564;2022-10-26T05:53:15;101188.94;;;6.64;100.00
23473;BME280;11909;52.516;13.564;2022-10-26T05:55:42;101193.59;;;6.64;100.00
23473;BME280;11909;52.516;13.564;2022-10-26T05:58:10;101193.00;;;6.62;100.00
23473;BME280;11909;52.516;13.564;2022-10-26T06:00:40;101195.38;;;6.58;100.00
23473;BME280;11909;52.516;13.564;2022-10-26T06:03:20;101196.94;;;6.54;100.00
23473;BME280;11909;52.516;13.564;2022-10-26T06:05:51;101202.97;;;6.56;100.00
23473;BME280;11909;52.516;13.564;2022-10-26T06:08:21;101200.03;;;6.57;100.00
23473;BME280;11909;52.516;13.564;2022-10-26T06:10:49;101201.06;;;6.56;100.00
23473;BME280;11909;52.516;13.564;2022-10-26T06:13:16;101200.72;;;6.53;100.00
23473;BME280;11909;52.516;13.564;2022-10-26T06:15:50;101204.03;;;6.55;100.00
23473;BME280;11909;52.516;13.564;2022-10-26T06:18:25;101200.44;;;6.66;100.00
23473;BME280;11909;52.516;13.564;2022-10-26T06:21:11;101201.28;;;6.67;100.00
23473;BME280;11909;52.516;13.564;2022-10-26T06:23:50;101205.31;;;6.64;100.00
23473;BME280;11909;52.516;13.564;2022-10-26T06:26:29;101204.72;;;6.62;100.00
23473;BME280;11909;52.516;13.564;2022-10-26T06:29:05;101205.66;;;6.68;100.00
23473;BME280;11909;52.516;13.564;2022-10-26T06:31:35;101206.00;;;6.71;100.00
23473;BME280;11909;52.516;13.564;2022-10-26T06:34:02;101219.06;;;6.69;100.00
23473;BME280;11909;52.516;13.564;2022-10-26T06:36:29;101219.97;;;6.75;100.00
23473;BME280;11909;52.516;13.564;2022-10-26T06:39:00;101216.28;;;6.81;100.00
23473;BME280;11909;52.516;13.564;2022-10-26T06:41:30;101221.97;;;6.80;100.00
23473;BME280;11909;52.516;13.564;2022-10-26T06:43:57;101212.94;;;6.79;100.00
23473;BME280;11909;52.516;13.564;2022-10-26T06:46:34;101209.66;;;6.77;100.00
23473;BME280;11909;52.516;13.564;2022-10-26T06:49:07;101216.75;;;6.78;100.00
23473;BME280;11909;52.516;13.564;2022-10-26T06:51:40;101223.63;;;6.81;100.00
23473;BME280;11909;52.516;13.564;2022-10-26T06:54:15;101223.88;;;6.79;100.00
23473;BME280;11909;52.516;13.564;2022-10-26T06:56:45;101218.91;;;6.76;100.00
23473;BME280;11909;52.516;13.564;2022-10-26T06:59:16;101224.22;;;6.83;100.00
23473;BME280;11909;52.516;13.564;2022-10-26T07:01:45;101220.91;;;6.81;100.00
23473;BME280;11909;52.516;13.564;2022-10-26T07:04:11;101220.06;;;6.80;100.00
23473;BME280;11909;52.516;13.564;2022-10-26T07:06:38;101222.56;;;6.82;100.00
23473;BME280;11909;52.516;13.564;2022-10-26T07:09:04;101216.88;;;6.83;100.00
23473;BME280;11909;52.516;13.564;2022-10-26T07:11:33;101214.81;;;6.91;100.00
23473;BME280;11909;52.516;13.564;2022-10-26T07:13:59;101229.63;;;6.95;100.00
23473;BME280;11909;52.516;13.564;2022-10-26T07:16:26;101227.81;;;7.00;100.00
23473;BME280;11909;52.516;13.564;2022-10-26T07:18:53;101226.59;;;7.08;100.00
23473;BME280;11909;52.516;13.564;2022-10-26T07:21:19;101228.84;;;7.11;100.00
23473;BME280;11909;52.516;13.564;2022-10-26T07:23:46;101222.41;;;7.17;100.00
23473;BME280;11909;52.516;13.564;2022-10-26T07:26:12;101229.59;;;7.24;100.00
23473;BME280;11909;52.516;13.564;2022-10-26T07:28:40;101226.72;;;7.30;100.00
23473;BME280;11909;52.516;13.564;2022-10-26T07:31:06;101233.09;;;7.36;100.00
23473;BME280;11909;52.516;13.564;2022-10-26T07:33:33;101230.09;;;7.38;100.00
23473;BME280;11909;52.516;13.564;2022-10-26T07:35:59;101218.94;;;7.39;100.00
23473;BME280;11909;52.516;13.564;2022-10-26T07:38:26;101234.59;;;7.44;100.00
23473;BME280;11909;52.516;13.564;2022-10-26T07:40:52;101228.13;;;7.50;100.00
23473;BME280;11909;52.516;13.564;2022-10-26T07:43:20;101228.78;;;7.57;100.00
23473;BME280;11909;52.516;13.564;2022-10-26T07:45:49;101224.59;;;7.67;100.00
23473;BME280;11909;52.516;13.564;2022-10-26T07:48:16;101216.47;;;7.72;100.00
23473;BME280;11909;52.516;13.564;2022-10-26T07:50:42;101210.84;;;7.79;100.00
23473;BME280;11909;52.516;13.564;2022-10-26T07:53:09;101217.22;;;7.84;100.00
23473;BME280;11909;52.516;13.564;2022-10-26T07:55:35;101218.09;;;7.90;100.00
23473;BME280;11909;52.516;13.564;2022-10-26T07:58:02;101221.81;;;8.01;100.00
23473;BME280;11909;52.516;13.564;2022-10-26T08:00:28;101219.22;;;8.11;100.00
23473;BME280;11909;52.516;13.564;2022-10-26T08:02:56;101214.97;;;8.21;100.00
23473;BME280;11909;52.516;13.564;2022-10-26T08:05:23;101216.44;;;8.28;100.00
23473;BME280;11909;52.516;13.564;2022-10-26T08:07:50;101219.25;;;8.33;100.00
23473;BME280;11909;52.516;13.564;2022-10-26T08:10:16;101215.47;;;8.40;100.00
23473;BME280;11909;52.516;13.564;2022-10-26T08:12:42;101221.59;;;8.47;100.00
23473;BME280;11909;52.516;13.564;2022-10-26T08:15:09;101218.72;;;8.54;100.00
23473;BME280;11909;52.516;13.564;2022-10-26T08:17:36;101219.91;;;8.63;100.00
23473;BME280;11909;52.516;13.564;2022-10-26T08:20:04;101227.94;;;8.70;100.00
23473;BME280;11909;52.516;13.564;2022-10-26T08:22:31;101221.66;;;8.74;100.00
23473;BME280;11909;52.516;13.564;2022-10-26T08:24:57;101234.06;;;8.82;100.00
23473;BME280;11909;52.516;13.564;2022-10-26T08:27:24;101224.84;;;8.88;100.00
23473;BME280;11909;52.516;13.564;2022-10-26T08:29:50;101221.09;;;8.95;100.00
23473;BME280;11909;52.516;13.564;2022-10-26T08:32:17;101225.75;;;8.99;100.00
23473;BME280;11909;52.516;13.564;2022-10-26T08:34:43;101228.31;;;9.06;100.00
23473;BME280;11909;52.516;13.564;2022-10-26T08:37:11;101222.06;;;9.11;100.00
23473;BME280;11909;52.516;13.564;2022-10-26T08:39:37;101217.19;;;9.18;100.00
23473;BME280;11909;52.516;13.564;2022-10-26T08:42:09;101216.16;;;9.24;100.00
23473;BME280;11909;52.516;13.564;2022-10-26T08:44:41;101217.53;;;9.27;100.00
23473;BME280;11909;52.516;13.564;2022-10-26T08:47:15;101219.84;;;9.35;100.00
23473;BME280;11909;52.516;13.564;2022-10-26T08:49:47;101216.84;;;9.42;100.00
23473;BME280;11909;52.516;13.564;2022-10-26T08:52:19;101219.66;;;9.47;100.00
23473;BME280;11909;52.516;13.564;2022-10-26T08:54:51;101226.53;;;9.55;100.00
23473;BME280;11909;52.516;13.564;2022-10-26T08:57:22;101234.94;;;9.75;100.00
23473;BME280;11909;52.516;13.564;2022-10-26T08:59:55;101226.47;;;9.82;100.00
23473;BME280;11909;52.516;13.564;2022-10-26T09:02:22;101227.34;;;9.88;100.00
23473;BME280;11909;52.516;13.564;2022-10-26T09:04:51;101229.34;;;9.98;100.00
23473;BME280;11909;52.516;13.564;2022-10-26T09:07:38;101233.59;;;10.26;100.00
23473;BME280;11909;52.516;13.564;2022-10-26T09:10:22;101225.97;;;10.39;100.00
23473;BME280;11909;52.516;13.564;2022-10-26T09:12:54;101226.34;;;10.53;100.00
23473;BME280;11909;52.516;13.564;2022-10-26T09:15:29;101232.47;;;10.70;100.00
23473;BME280;11909;52.516;13.564;2022-10-26T09:18:07;101231.13;;;10.88;100.00
23473;BME280;11909;52.516;13.564;2022-10-26T09:20:50;101235.03;;;11.08;100.00
23473;BME280;11909;52.516;13.564;2022-10-26T09:23:46;101238.34;;;11.31;100.00
23473;BME280;11909;52.516;13.564;2022-10-26T09:26:26;101231.78;;;11.47;100.00
23473;BME280;11909;52.516;13.564;2022-10-26T09:28:55;101241.13;;;11.67;100.00
23473;BME280;11909;52.516;13.564;2022-10-26T09:31:22;101247.69;;;11.82;100.00
23473;BME280;11909;52.516;13.564;2022-10-26T09:33:51;101243.00;;;11.98;100.00
23473;BME280;11909;52.516;13.564;2022-10-26T09:36:19;101241.09;;;12.03;100.00
23473;BME280;11909;52.516;13.564;2022-10-26T09:38:50;101248.53;;;12.08;100.00
23473;BME280;11909;52.516;13.564;2022-10-26T09:41:23;101252.91;;;12.14;100.00
23473;BME280;11909;52.516;13.564;2022-10-26T09:43:55;101248.25;;;12.15;100.00
23473;BME280;11909;52.516;13.564;2022-10-26T09:46:27;101247.91;;;12.22;100.00
23473;BME280;11909;52.516;13.564;2022-10-26T09:48:58;101244.91;;;12.23;100.00
23473;BME280;11909;52.516;13.564;2022-10-26T09:51:25;101249.03;;;12.26;99.24
23473;BME280;11909;52.516;13.564;2022-10-26T09:53:55;101243.53;;;12.26;98.97
23473;BME280;11909;52.516;13.564;2022-10-26T09:56:23;101247.38;;;12.30;99.77
23473;BME280;11909;52.516;13.564;2022-10-26T09:58:53;101255.03;;;12.38;97.13
23473;BME280;11909;52.516;13.564;2022-10-26T10:01:27;101252.56;;;12.42;97.76
23473;BME280;11909;52.516;13.564;2022-10-26T10:04:16;101254.97;;;12.59;97.31
23473;BME280;11909;52.516;13.564;2022-10-26T10:06:45;101260.19;;;12.66;95.19
23473;BME280;11909;52.516;13.564;2022-10-26T10:09:15;101259.88;;;12.72;95.25
23473;BME280;11909;52.516;13.564;2022-10-26T10:11:44;101267.00;;;12.79;95.55
23473;BME280;11909;52.516;13.564;2022-10-26T10:14:19;101265.78;;;13.00;92.09
23473;BME280;11909;52.516;13.564;2022-10-26T10:16:52;101266.59;;;13.01;92.76
23473;BME280;11909;52.516;13.564;2022-10-26T10:19:22;101264.31;;;13.18;91.41
23473;BME280;11909;52.516;13.564;2022-10-26T10:21:51;101268.75;;;13.14;91.08
23473;BME280;11909;52.516;13.564;2022-10-26T10:24:24;101265.19;;;13.09;91.76
23473;BME280;11909;52.516;13.564;2022-10-26T10:27:00;101260.44;;;13.19;91.49
23473;BME280;11909;52.516;13.564;2022-10-26T10:29:27;101253.56;;;13.17;92.23
23473;BME280;11909;52.516;13.564;2022-10-26T10:31:55;101258.31;;;13.51;90.05
23473;BME280;11909;52.516;13.564;2022-10-26T10:34:22;101267.75;;;13.45;89.47
23473;BME280;11909;52.516;13.564;2022-10-26T10:36:50;101260.28;;;13.45;89.57
23473;BME280;11909;52.516;13.564;2022-10-26T10:39:34;101252.53;;;13.47;91.53
23473;BME280;11909;52.516;13.564;2022-10-26T10:42:01;101252.84;;;13.46;91.91
23473;BME280;11909;52.516;13.564;2022-10-26T10:44:29;101261.31;;;13.55;91.28
23473;BME280;11909;52.516;13.564;2022-10-26T10:47:01;101259.09;;;13.57;91.35
23473;BME280;11909;52.516;13.564;2022-10-26T10:49:28;101268.53;;;13.80;88.14
23473;BME280;11909;52.516;13.564;2022-10-26T10:51:55;101259.06;;;13.91;87.52
23473;BME280;11909;52.516;13.564;2022-10-26T10:54:25;101263.53;;;13.87;87.45
23473;BME280;11909;52.516;13.564;2022-10-26T10:56:56;101266.56;;;13.86;88.03
23473;BME280;11909;52.516;13.564;2022-10-26T10:59:48;101262.66;;;13.92;88.71
23473;BME280;11909;52.516;13.564;2022-10-26T11:02:47;101262.78;;;14.06;87.33
23473;BME280;11909;52.516;13.564;2022-10-26T11:05:26;101257.50;;;14.10;86.54
23473;BME280;11909;52.516;13.564;2022-10-26T11:08:01;101266.75;;;14.24;84.15
23473;BME280;11909;52.516;13.564;2022-10-26T11:10:32;101261.25;;;14.24;85.03
23473;BME280;11909;52.516;13.564;2022-10-26T11:13:06;101265.00;;;14.33;83.79
23473;BME280;11909;52.516;13.564;2022-10-26T11:15:36;101265.22;;;14.37;83.42
23473;BME280;11909;52.516;13.564;2022-10-26T11:18:11;101270.41;;;14.44;83.63
23473;BME280;11909;52.516;13.564;2022-10-26T11:20:43;101268.00;;;14.37;84.04
23473;BME280;11909;52.516;13.564;2022-10-26T11:23:16;101271.56;;;14.38;84.62
23473;BME280;11909;52.516;13.564;2022-10-26T11:25:48;101270.63;;;14.47;82.24
23473;BME280;11909;52.516;13.564;2022-10-26T11:28:18;101270.94;;;14.46;82.26
23473;BME280;11909;52.516;13.564;2022-10-26T11:30:51;101262.16;;;14.39;83.54
23473;BME280;11909;52.516;13.564;2022-10-26T11:33:24;101264.88;;;14.44;83.29
23473;BME280;11909;52.516;13.564;2022-10-26T11:35:56;101261.88;;;14.40;83.87
23473;BME280;11909;52.516;13.564;2022-10-26T11:38:29;101259.13;;;14.40;84.54
23473;BME280;11909;52.516;13.564;2022-10-26T11:41:01;101264.81;;;14.49;83.30
23473;BME280;11909;52.516;13.564;2022-10-26T11:43:35;101263.47;;;14.46;81.61
23473;BME280;11909;52.516;13.564;2022-10-26T11:46:07;101253.47;;;14.51;82.84
23473;BME280;11909;52.516;13.564;2022-10-26T11:48:39;101247.91;;;14.56;83.34
23473;BME280;11909;52.516;13.564;2022-10-26T11:51:15;101260.94;;;14.74;79.76
23473;BME280;11909;52.516;13.564;2022-10-26T11:53:43;101254.88;;;14.72;79.33
23473;BME280;11909;52.516;13.564;2022-10-26T11:56:14;101250.19;;;14.73;80.08
23473;BME280;11909;52.516;13.564;2022-10-26T11:58:44;101261.06;;;14.88;76.92
23473;BME280;11909;52.516;13.564;2022-10-26T12:01:12;101259.78;;;14.81;76.61
23473;BME280;11909;52.516;13.564;2022-10-26T12:03:42;101256.16;;;14.80;77.14
23473;BME280;11909;52.516;13.564;2022-10-26T12:06:12;101247.28;;;14.83;77.48
23473;BME280;11909;52.516;13.564;2022-10-26T12:08:42;101249.53;;;14.81;79.01
23473;BME280;11909;52.516;13.564;2022-10-26T12:11:20;101240.34;;;14.86;78.74
23473;BME280;11909;52.516;13.564;2022-10-26T12:13:56;101244.75;;;14.87;79.26
23473;BME280;11909;52.516;13.564;2022-10-26T12:16:38;101237.66;;;14.81;79.41
23473;BME280;11909;52.516;13.564;2022-10-26T12:19:13;101252.16;;;14.91;77.92
23473;BME280;11909;52.516;13.564;2022-10-26T12:21:42;101238.41;;;14.86;78.34
23473;BME280;11909;52.516;13.564;2022-10-26T12:24:25;101233.25;;;14.80;80.09
23473;BME280;11909;52.516;13.564;2022-10-26T12:26:53;101229.41;;;14.75;81.09
23473;BME280;11909;52.516;13.564;2022-10-26T12:29:30;101226.13;;;14.73;80.47
23473;BME280;11909;52.516;13.564;2022-10-26T12:31:59;101234.06;;;14.80;79.96
23473;BME280;11909;52.516;13.564;2022-10-26T12:34:57;101225.50;;;14.82;79.97
23473;BME280;11909;52.516;13.564;2022-10-26T12:37:31;101220.25;;;14.80;79.61
23473;BME280;11909;52.516;13.564;2022-10-26T12:43:32;101234.81;;;15.05;76.44
23473;BME280;11909;52.516;13.564;2022-10-26T12:52:26;101231.31;;;15.18;76.74
23473;BME280;11909;52.516;13.564;2022-10-26T13:04:27;101239.16;;;15.63;73.66
23473;BME280;11909;52.516;13.564;2022-10-26T13:07:16;101235.31;;;15.45;75.29
23473;BME280;11909;52.516;13.564;2022-10-26T13:09:56;101238.59;;;15.47;74.69
23473;BME280;11909;52.516;13.564;2022-10-26T13:12:24;101237.34;;;15.40;75.33
23473;BME280;11909;52.516;13.564;2022-10-26T13:14:56;101238.78;;;15.37;74.97